createdAt,value
2018-12-13T00:02:57.944Z,2.47
2018-12-13T00:07:32.831Z,3.00
2018-12-13T00:12:07.703Z,7.17
2018-12-13T00:16:42.931Z,2.60
2018-12-13T00:21:17.793Z,3.17
2018-12-13T00:25:52.714Z,2.60
2018-12-13T00:30:27.579Z,2.67
2018-12-13T00:35:02.483Z,4.37
2018-12-13T00:39:37.423Z,3.87
2018-12-13T00:44:12.312Z,4.83
2018-12-13T00:48:47.183Z,4.13
2018-12-13T00:53:22.082Z,2.70
2018-12-13T00:57:56.952Z,3.43
2018-12-13T01:02:31.842Z,2.83
2018-12-13T01:07:06.719Z,4.13
2018-12-13T01:11:41.631Z,5.93
2018-12-13T01:16:21.899Z,4.93
2018-12-13T01:20:56.797Z,3.33
2018-12-13T01:25:31.748Z,4.17
2018-12-13T01:30:06.825Z,2.70
2018-12-13T01:34:41.691Z,4.30
2018-12-13T01:39:16.581Z,3.13
2018-12-13T01:43:51.466Z,4.43
2018-12-13T01:48:26.346Z,4.67
2018-12-13T01:53:01.207Z,2.60
2018-12-13T01:57:36.915Z,2.77
2018-12-13T02:02:11.784Z,3.13
2018-12-13T02:06:46.658Z,2.67
2018-12-13T02:11:22.111Z,3.87
2018-12-13T02:15:57.392Z,2.47
2018-12-13T02:20:32.258Z,3.97
2018-12-13T02:25:07.282Z,6.90
2018-12-13T02:29:42.148Z,5.33
2018-12-13T02:34:17.070Z,3.60
2018-12-13T02:38:51.932Z,3.97
2018-12-13T02:43:26.828Z,1.70
2018-12-13T02:48:02.337Z,4.70
2018-12-13T02:52:37.214Z,2.53
2018-12-13T02:57:12.191Z,5.80
2018-12-13T03:01:47.600Z,3.67
2018-12-13T03:06:22.478Z,3.00
2018-12-13T03:10:57.397Z,2.47
2018-12-13T03:15:32.264Z,3.43
2018-12-13T03:20:07.290Z,3.17
2018-12-13T03:24:42.156Z,2.90
2018-12-13T03:29:17.048Z,2.20
2018-12-13T03:33:51.928Z,2.03
2018-12-13T03:38:26.899Z,2.30
2018-12-13T03:43:01.775Z,2.57
2018-12-13T03:47:36.660Z,2.03
2018-12-13T03:52:11.554Z,2.77
2018-12-13T03:56:46.435Z,2.37
2018-12-13T04:01:21.314Z,2.17
2018-12-13T04:05:56.199Z,2.30
2018-12-13T04:10:31.056Z,4.43
2018-12-13T04:15:06.108Z,4.07
2018-12-13T04:19:40.980Z,1.80
2018-12-13T04:24:15.856Z,2.57
2018-12-13T04:28:50.730Z,2.90
2018-12-13T04:33:25.610Z,2.10
2018-12-13T04:38:00.479Z,1.73
2018-12-13T04:42:35.395Z,2.20
2018-12-13T04:47:10.360Z,2.70
2018-12-13T04:51:45.247Z,3.07
2018-12-13T04:56:20.119Z,1.63
2018-12-13T05:00:55.123Z,3.00
2018-12-13T05:05:29.995Z,4.53
2018-12-13T05:10:05.637Z,3.67
2018-12-13T05:14:40.499Z,3.57
2018-12-13T05:19:15.391Z,3.40
2018-12-13T05:23:50.254Z,4.80
2018-12-13T05:28:25.151Z,5.57
2018-12-13T05:33:00.024Z,0.97
2018-12-13T05:37:34.899Z,2.07
2018-12-13T05:42:09.764Z,2.83
2018-12-13T05:46:44.675Z,4.90
2018-12-13T05:51:19.543Z,6.47
2018-12-13T05:55:54.431Z,3.93
2018-12-13T06:00:30.066Z,4.03
2018-12-13T06:05:06.207Z,6.97
2018-12-13T06:09:41.083Z,9.17
2018-12-13T06:14:15.984Z,7.83
2018-12-13T06:18:50.855Z,6.63
2018-12-13T06:23:25.732Z,9.33
2018-12-13T06:28:00.603Z,8.83
2018-12-13T06:32:35.528Z,15.47
2018-12-13T06:37:10.401Z,6.10
2018-12-13T06:41:45.287Z,6.90
2018-12-13T06:46:20.164Z,7.00
2018-12-13T06:50:55.075Z,11.33
2018-12-13T06:55:29.959Z,6.57
2018-12-13T07:00:06.745Z,12.63
2018-12-13T07:04:41.631Z,9.50
2018-12-13T07:09:16.523Z,6.00
2018-12-13T07:13:51.395Z,4.70
2018-12-13T07:18:26.294Z,8.37
2018-12-13T07:23:01.172Z,10.67
2018-12-13T07:27:36.654Z,5.20
2018-12-13T07:32:11.522Z,9.83
2018-12-13T07:36:46.423Z,10.63
2018-12-13T07:41:21.401Z,7.20
2018-12-13T07:45:56.283Z,5.10
2018-12-13T07:50:31.157Z,8.97
2018-12-13T07:55:06.706Z,13.73
2018-12-13T07:59:41.571Z,8.20
2018-12-13T08:04:16.466Z,8.37
2018-12-13T08:08:51.512Z,7.43
2018-12-13T08:13:26.399Z,6.43
2018-12-13T08:18:01.387Z,6.27
2018-12-13T08:22:36.255Z,11.17
2018-12-13T08:27:11.272Z,13.00
2018-12-13T08:31:46.143Z,10.70
2018-12-13T08:36:21.120Z,18.50
2018-12-13T08:40:56.394Z,13.67
2018-12-13T08:45:31.315Z,11.53
2018-12-13T08:50:06.444Z,10.20
2018-12-13T08:54:41.459Z,13.57
2018-12-13T08:59:16.363Z,20.57
2018-12-13T09:03:51.276Z,15.63
2018-12-13T09:08:26.163Z,10.33
2018-12-13T09:13:01.066Z,12.17
2018-12-13T09:17:36.039Z,34.07
2018-12-13T09:22:10.959Z,16.53
2018-12-13T09:26:45.935Z,18.00
2018-12-13T09:31:20.827Z,52.70
2018-12-13T09:35:55.719Z,29.23
2018-12-13T09:40:30.619Z,14.23
2018-12-13T09:45:07.454Z,15.03
2018-12-13T09:49:42.636Z,10.83
2018-12-13T09:54:17.628Z,20.43
2018-12-13T09:58:52.526Z,9.57
2018-12-13T10:03:27.439Z,14.77
2018-12-13T10:08:02.358Z,19.53
2018-12-13T10:12:37.245Z,14.83
2018-12-13T10:17:12.156Z,18.53
2018-12-13T10:21:47.694Z,10.57
2018-12-13T10:26:22.621Z,16.87
2018-12-13T10:30:57.652Z,12.07
2018-12-13T10:35:32.551Z,10.27
2018-12-13T10:40:08.331Z,7.83
2018-12-13T10:44:43.226Z,9.07
2018-12-13T10:49:18.134Z,8.17
2018-12-13T10:53:53.040Z,6.27
2018-12-13T10:58:27.912Z,6.47
2018-12-13T11:03:20.052Z,7.17
2018-12-13T11:07:54.971Z,2.70
2018-12-13T11:12:29.877Z,7.13
2018-12-13T11:17:04.752Z,11.87
2018-12-13T11:21:39.683Z,7.07
2018-12-13T11:26:14.545Z,5.07
2018-12-13T11:30:49.471Z,6.57
2018-12-13T11:35:24.335Z,6.27
2018-12-13T11:39:59.243Z,3.93
2018-12-13T11:44:34.145Z,6.70
2018-12-13T11:49:12.159Z,9.47
2018-12-13T11:53:46.783Z,8.10
2018-12-13T11:58:21.669Z,14.47
2018-12-13T12:02:56.557Z,20.10
2018-12-13T12:07:31.459Z,9.53
2018-12-13T12:12:06.481Z,4.60
2018-12-13T12:16:41.499Z,5.47
2018-12-13T12:21:16.375Z,7.43
2018-12-13T12:25:51.286Z,7.83
2018-12-13T12:30:26.162Z,5.17
2018-12-13T12:35:01.031Z,9.37
2018-12-13T12:39:36.128Z,7.03
2018-12-13T12:44:11.003Z,5.97
2018-12-13T12:48:45.876Z,6.20
2018-12-13T12:53:20.787Z,6.73
2018-12-13T12:57:55.658Z,5.97
2018-12-13T13:02:31.763Z,7.13
2018-12-13T13:07:06.643Z,4.57
2018-12-13T13:11:41.523Z,8.10
2018-12-13T13:16:16.423Z,6.23
2018-12-13T13:20:51.319Z,6.53
2018-12-13T13:25:26.188Z,4.67
2018-12-13T13:30:01.085Z,8.07
2018-12-13T13:34:36.869Z,8.13
2018-12-13T13:39:11.915Z,7.83
2018-12-13T13:43:47.695Z,5.90
2018-12-13T13:48:22.596Z,8.70
2018-12-13T13:52:57.470Z,10.77
2018-12-13T13:57:32.386Z,5.40
2018-12-13T14:02:07.285Z,13.23
2018-12-13T14:06:42.180Z,6.50
2018-12-13T14:11:17.064Z,11.40
2018-12-13T14:15:51.944Z,5.53
2018-12-13T14:20:26.845Z,6.53
2018-12-13T14:25:01.736Z,6.07
2018-12-13T14:29:37.472Z,8.90
2018-12-13T14:34:12.488Z,6.50
2018-12-13T14:38:47.344Z,7.67
2018-12-13T14:43:22.216Z,7.40
2018-12-13T14:47:57.080Z,5.47
2018-12-13T14:52:32.206Z,4.17
2018-12-13T14:57:07.884Z,4.80
2018-12-13T15:01:42.842Z,4.90
2018-12-13T15:06:17.695Z,11.77
2018-12-13T15:10:52.604Z,11.03
2018-12-13T15:15:27.609Z,8.50
2018-12-13T15:20:02.495Z,13.03
2018-12-13T15:24:37.377Z,5.03
2018-12-13T15:29:12.269Z,6.03
2018-12-13T15:33:47.134Z,12.50
2018-12-13T15:38:22.024Z,9.30
2018-12-13T15:42:56.888Z,14.03
2018-12-13T15:47:31.775Z,6.60
2018-12-13T15:52:06.647Z,11.67
2018-12-13T15:56:41.717Z,8.37
2018-12-13T16:01:16.755Z,9.53
2018-12-13T16:05:51.764Z,7.93
2018-12-13T16:10:27.061Z,11.77
2018-12-13T16:15:02.117Z,8.60
2018-12-13T16:19:37.055Z,8.97
2018-12-13T16:24:11.967Z,7.20
2018-12-13T16:28:46.855Z,14.00
2018-12-13T16:33:21.796Z,10.30
2018-12-13T16:37:56.662Z,11.63
2018-12-13T16:42:31.556Z,21.67
2018-12-13T16:47:07.457Z,27.00
2018-12-13T16:51:42.368Z,12.90
2018-12-13T16:56:17.259Z,11.47
2018-12-13T17:00:52.292Z,12.77
2018-12-13T17:05:27.180Z,11.07
2018-12-13T17:10:02.231Z,17.90
2018-12-13T17:14:38.059Z,62.67
2018-12-13T17:19:13.159Z,29.30
2018-12-13T17:23:48.127Z,12.07
2018-12-13T17:28:23.174Z,18.10
2018-12-13T17:32:58.255Z,13.57
2018-12-13T17:37:33.285Z,12.30
2018-12-13T17:42:08.181Z,11.67
2018-12-13T17:46:43.251Z,17.90
2018-12-13T17:51:18.146Z,10.97
2018-12-13T17:55:53.030Z,12.23
2018-12-13T18:00:27.929Z,14.10
2018-12-13T18:05:03.064Z,8.27
2018-12-13T18:09:38.464Z,7.77
2018-12-13T18:14:13.395Z,12.83
2018-12-13T18:18:48.279Z,14.80
2018-12-13T18:23:23.184Z,13.03
2018-12-13T18:27:58.071Z,35.17
2018-12-13T18:32:32.966Z,28.27
2018-12-13T18:37:08.097Z,19.03
2018-12-13T18:41:43.017Z,23.33
2018-12-13T18:46:17.917Z,18.57
2018-12-13T18:50:52.833Z,27.83
2018-12-13T18:55:27.707Z,23.10
2018-12-13T19:00:02.632Z,16.30
2018-12-13T19:04:37.504Z,10.23
2018-12-13T19:09:12.415Z,16.47
2018-12-13T19:13:47.290Z,15.87
2018-12-13T19:18:22.249Z,17.43
2018-12-13T19:22:57.127Z,16.37
2018-12-13T19:27:32.023Z,27.07
2018-12-13T19:32:06.904Z,17.90
2018-12-13T19:36:42.523Z,17.37
2018-12-13T19:41:18.116Z,13.17
2018-12-13T19:45:53.052Z,16.13
2018-12-13T19:50:27.930Z,12.13
2018-12-13T19:55:02.843Z,12.93
2018-12-13T19:59:37.723Z,12.60
2018-12-13T20:04:12.614Z,12.93
2018-12-13T20:08:48.523Z,12.57
2018-12-13T20:13:23.439Z,14.07
2018-12-13T20:17:58.317Z,11.30
2018-12-13T20:22:33.211Z,18.13
2018-12-13T20:27:08.088Z,16.80
2018-12-13T20:31:43.008Z,13.23
2018-12-13T20:36:17.894Z,17.50
2018-12-13T20:40:52.798Z,16.60
2018-12-13T20:45:27.728Z,17.33
2018-12-13T20:50:03.711Z,25.10
2018-12-13T20:54:38.587Z,12.93
2018-12-13T20:59:13.484Z,13.60
2018-12-13T21:03:48.475Z,15.07
2018-12-13T21:08:23.385Z,15.63
2018-12-13T21:12:58.269Z,12.20
2018-12-13T21:17:33.184Z,14.47
2018-12-13T21:22:08.064Z,16.47
2018-12-13T21:26:43.058Z,12.47
2018-12-13T21:31:17.932Z,12.57
2018-12-13T21:35:52.872Z,18.97
2018-12-13T21:40:27.769Z,26.40
2018-12-13T21:45:02.683Z,15.80
2018-12-13T21:49:37.579Z,13.07
2018-12-13T21:54:12.495Z,16.17
2018-12-13T21:58:47.390Z,15.67
2018-12-13T22:03:22.285Z,10.53
2018-12-13T22:07:57.164Z,17.70
2018-12-13T22:12:32.072Z,14.47
2018-12-13T22:17:06.954Z,20.47
2018-12-13T22:21:41.964Z,24.80
2018-12-13T22:26:17.069Z,14.27
2018-12-13T22:30:52.056Z,14.13
2018-12-13T22:35:26.935Z,17.00
2018-12-13T22:40:02.323Z,16.37
2018-12-13T22:44:37.193Z,16.00
2018-12-13T22:49:12.075Z,14.40
2018-12-13T22:53:46.977Z,12.30
2018-12-13T22:58:21.877Z,14.13
2018-12-13T23:02:56.734Z,8.97
2018-12-13T23:07:32.283Z,13.63
2018-12-13T23:12:07.283Z,12.03
2018-12-13T23:16:42.177Z,9.20
2018-12-13T23:21:17.216Z,14.07
2018-12-13T23:25:52.113Z,12.20
2018-12-13T23:30:27.026Z,12.80
2018-12-13T23:35:02.199Z,12.87
2018-12-13T23:39:37.160Z,13.07
2018-12-13T23:44:12.087Z,11.90
2018-12-13T23:48:47.092Z,11.50
2018-12-13T23:53:21.999Z,11.23
2018-12-13T23:57:56.896Z,16.63
